sensor_id;sensor_type;location;lat;lon;timestamp;P1;durP1;ratioP1;P2;durP2;ratioP2
11931;SDS011;6025;51.368;6.788;2022-12-11T00:01:12;41.53;;;18.03;;
11931;SDS011;6025;51.368;6.788;2022-12-11T00:06:05;43.17;;;17.33;;
11931;SDS011;6025;51.368;6.788;2022-12-11T00:10:59;38.40;;;16.27;;
11931;SDS011;6025;51.368;6.788;2022-12-11T00:15:51;37.77;;;17.40;;
11931;SDS011;6025;51.368;6.788;2022-12-11T00:20:42;43.07;;;18.13;;
11931;SDS011;6025;51.368;6.788;2022-12-11T00:25:34;44.13;;;17.20;;
11931;SDS011;6025;51.368;6.788;2022-12-11T00:30:27;45.77;;;18.23;;
11931;SDS011;6025;51.368;6.788;2022-12-11T00:35:18;45.50;;;18.10;;
11931;SDS011;6025;51.368;6.788;2022-12-11T00:40:10;43.23;;;17.70;;
11931;SDS011;6025;51.368;6.788;2022-12-11T00:45:02;44.77;;;18.53;;
11931;SDS011;6025;51.368;6.788;2022-12-11T00:49:55;42.67;;;18.80;;
11931;SDS011;6025;51.368;6.788;2022-12-11T00:54:47;45.10;;;18.50;;
11931;SDS011;6025;51.368;6.788;2022-12-11T00:59:38;34.27;;;14.97;;
11931;SDS011;6025;51.368;6.788;2022-12-11T01:04:30;32.37;;;14.70;;
11931;SDS011;6025;51.368;6.788;2022-12-11T01:09:23;26.70;;;12.20;;
11931;SDS011;6025;51.368;6.788;2022-12-11T01:14:31;26.33;;;10.90;;
11931;SDS011;6025;51.368;6.788;2022-12-11T01:19:23;20.40;;;11.17;;
11931;SDS011;6025;51.368;6.788;2022-12-11T01:24:15;23.80;;;11.80;;
11931;SDS011;6025;51.368;6.788;2022-12-11T01:29:08;21.50;;;11.00;;
11931;SDS011;6025;51.368;6.788;2022-12-11T01:33:59;24.03;;;11.80;;
11931;SDS011;6025;51.368;6.788;2022-12-11T01:38:51;27.47;;;12.07;;
11931;SDS011;6025;51.368;6.788;2022-12-11T01:43:56;26.37;;;12.97;;
11931;SDS011;6025;51.368;6.788;2022-12-11T01:48:51;30.17;;;13.53;;
11931;SDS011;6025;51.368;6.788;2022-12-11T01:53:44;29.23;;;14.17;;
11931;SDS011;6025;51.368;6.788;2022-12-11T01:58:40;28.50;;;14.00;;
11931;SDS011;6025;51.368;6.788;2022-12-11T02:03:34;29.87;;;13.50;;
11931;SDS011;6025;51.368;6.788;2022-12-11T02:08:27;31.03;;;14.30;;
11931;SDS011;6025;51.368;6.788;2022-12-11T02:13:20;27.60;;;13.63;;
11931;SDS011;6025;51.368;6.788;2022-12-11T02:18:16;24.80;;;12.60;;
11931;SDS011;6025;51.368;6.788;2022-12-11T02:28:53;30.83;;;14.33;;
11931;SDS011;6025;51.368;6.788;2022-12-11T02:33:47;28.67;;;12.93;;
11931;SDS011;6025;51.368;6.788;2022-12-11T02:38:42;26.37;;;13.33;;
11931;SDS011;6025;51.368;6.788;2022-12-11T02:43:39;28.10;;;12.83;;
11931;SDS011;6025;51.368;6.788;2022-12-11T02:48:33;29.63;;;13.13;;
11931;SDS011;6025;51.368;6.788;2022-12-11T02:53:27;27.73;;;13.73;;
11931;SDS011;6025;51.368;6.788;2022-12-11T02:58:20;28.47;;;12.97;;
11931;SDS011;6025;51.368;6.788;2022-12-11T03:03:13;29.50;;;14.17;;
11931;SDS011;6025;51.368;6.788;2022-12-11T03:08:06;29.57;;;14.00;;
11931;SDS011;6025;51.368;6.788;2022-12-11T03:12:58;32.10;;;14.17;;
11931;SDS011;6025;51.368;6.788;2022-12-11T03:17:53;33.07;;;14.70;;
11931;SDS011;6025;51.368;6.788;2022-12-11T03:22:50;32.23;;;14.93;;
11931;SDS011;6025;51.368;6.788;2022-12-11T03:27:47;33.03;;;15.23;;
11931;SDS011;6025;51.368;6.788;2022-12-11T03:32:45;33.23;;;15.20;;
11931;SDS011;6025;51.368;6.788;2022-12-11T03:37:39;31.60;;;15.70;;
11931;SDS011;6025;51.368;6.788;2022-12-11T03:42:31;33.63;;;15.37;;
11931;SDS011;6025;51.368;6.788;2022-12-11T03:47:25;32.17;;;15.23;;
11931;SDS011;6025;51.368;6.788;2022-12-11T03:52:17;35.63;;;15.37;;
11931;SDS011;6025;51.368;6.788;2022-12-11T03:57:10;28.30;;;15.10;;
11931;SDS011;6025;51.368;6.788;2022-12-11T04:02:05;26.50;;;14.00;;
11931;SDS011;6025;51.368;6.788;2022-12-11T04:07:01;26.13;;;14.20;;
11931;SDS011;6025;51.368;6.788;2022-12-11T04:11:52;27.00;;;13.83;;
11931;SDS011;6025;51.368;6.788;2022-12-11T04:16:44;28.47;;;13.97;;
11931;SDS011;6025;51.368;6.788;2022-12-11T04:21:35;31.47;;;15.77;;
11931;SDS011;6025;51.368;6.788;2022-12-11T04:26:46;30.83;;;15.43;;
11931;SDS011;6025;51.368;6.788;2022-12-11T04:31:37;31.10;;;15.23;;
11931;SDS011;6025;51.368;6.788;2022-12-11T04:36:29;32.73;;;16.13;;
11931;SDS011;6025;51.368;6.788;2022-12-11T04:41:20;32.20;;;16.10;;
11931;SDS011;6025;51.368;6.788;2022-12-11T04:46:14;30.30;;;16.00;;
11931;SDS011;6025;51.368;6.788;2022-12-11T04:51:07;35.17;;;16.30;;
11931;SDS011;6025;51.368;6.788;2022-12-11T04:55:59;34.00;;;16.50;;
11931;SDS011;6025;51.368;6.788;2022-12-11T05:00:50;29.77;;;16.50;;
11931;SDS011;6025;51.368;6.788;2022-12-11T05:05:47;32.17;;;16.13;;
11931;SDS011;6025;51.368;6.788;2022-12-11T05:10:39;32.80;;;15.40;;
11931;SDS011;6025;51.368;6.788;2022-12-11T05:15:31;28.53;;;15.13;;
11931;SDS011;6025;51.368;6.788;2022-12-11T05:20:22;26.80;;;14.57;;
11931;SDS011;6025;51.368;6.788;2022-12-11T05:25:15;25.87;;;14.93;;
11931;SDS011;6025;51.368;6.788;2022-12-11T05:30:07;29.17;;;14.70;;
11931;SDS011;6025;51.368;6.788;2022-12-11T05:35:00;26.47;;;14.53;;
11931;SDS011;6025;51.368;6.788;2022-12-11T05:39:52;25.07;;;14.07;;
11931;SDS011;6025;51.368;6.788;2022-12-11T05:44:45;26.53;;;15.07;;
11931;SDS011;6025;51.368;6.788;2022-12-11T05:49:37;26.47;;;14.53;;
11931;SDS011;6025;51.368;6.788;2022-12-11T05:54:29;25.97;;;13.40;;
11931;SDS011;6025;51.368;6.788;2022-12-11T05:59:20;24.47;;;13.80;;
11931;SDS011;6025;51.368;6.788;2022-12-11T06:04:13;27.57;;;13.50;;
11931;SDS011;6025;51.368;6.788;2022-12-11T06:09:06;25.33;;;14.10;;
11931;SDS011;6025;51.368;6.788;2022-12-11T06:13:57;26.67;;;13.47;;
11931;SDS011;6025;51.368;6.788;2022-12-11T06:18:49;25.20;;;14.17;;
11931;SDS011;6025;51.368;6.788;2022-12-11T06:23:42;24.43;;;14.20;;
11931;SDS011;6025;51.368;6.788;2022-12-11T06:28:38;25.33;;;14.00;;
11931;SDS011;6025;51.368;6.788;2022-12-11T06:33:30;23.30;;;13.53;;
11931;SDS011;6025;51.368;6.788;2022-12-11T06:38:23;26.77;;;14.47;;
11931;SDS011;6025;51.368;6.788;2022-12-11T06:43:16;24.77;;;13.43;;
11931;SDS011;6025;51.368;6.788;2022-12-11T06:48:08;24.17;;;13.73;;
11931;SDS011;6025;51.368;6.788;2022-12-11T06:53:01;26.47;;;13.47;;
11931;SDS011;6025;51.368;6.788;2022-12-11T06:57:53;26.37;;;13.87;;
11931;SDS011;6025;51.368;6.788;2022-12-11T07:02:46;23.13;;;12.63;;
11931;SDS011;6025;51.368;6.788;2022-12-11T07:07:39;23.50;;;12.90;;
11931;SDS011;6025;51.368;6.788;2022-12-11T07:12:31;21.57;;;12.63;;
11931;SDS011;6025;51.368;6.788;2022-12-11T07:17:26;21.00;;;12.03;;
11931;SDS011;6025;51.368;6.788;2022-12-11T07:22:20;23.20;;;12.93;;
11931;SDS011;6025;51.368;6.788;2022-12-11T07:27:11;20.77;;;12.00;;
11931;SDS011;6025;51.368;6.788;2022-12-11T07:32:07;21.03;;;12.70;;
11931;SDS011;6025;51.368;6.788;2022-12-11T07:36:59;23.87;;;12.40;;
11931;SDS011;6025;51.368;6.788;2022-12-11T07:41:52;21.73;;;12.10;;
11931;SDS011;6025;51.368;6.788;2022-12-11T07:46:47;19.60;;;11.13;;
11931;SDS011;6025;51.368;6.788;2022-12-11T07:51:42;19.83;;;11.00;;
11931;SDS011;6025;51.368;6.788;2022-12-11T07:56:35;23.10;;;11.97;;
11931;SDS011;6025;51.368;6.788;2022-12-11T08:01:29;19.77;;;11.27;;
11931;SDS011;6025;51.368;6.788;2022-12-11T08:06:26;21.03;;;12.43;;
11931;SDS011;6025;51.368;6.788;2022-12-11T08:11:20;17.63;;;11.93;;
11931;SDS011;6025;51.368;6.788;2022-12-11T08:16:15;20.00;;;11.73;;
11931;SDS011;6025;51.368;6.788;2022-12-11T08:21:10;20.80;;;11.53;;
11931;SDS011;6025;51.368;6.788;2022-12-11T08:26:05;21.20;;;12.30;;
11931;SDS011;6025;51.368;6.788;2022-12-11T08:30:58;19.73;;;11.77;;
11931;SDS011;6025;51.368;6.788;2022-12-11T08:35:50;21.07;;;11.80;;
11931;SDS011;6025;51.368;6.788;2022-12-11T08:40:43;19.30;;;11.77;;
11931;SDS011;6025;51.368;6.788;2022-12-11T08:45:35;22.93;;;12.30;;
11931;SDS011;6025;51.368;6.788;2022-12-11T08:50:28;18.63;;;11.20;;
11931;SDS011;6025;51.368;6.788;2022-12-11T08:55:20;23.40;;;11.83;;
11931;SDS011;6025;51.368;6.788;2022-12-11T09:00:14;17.53;;;11.00;;
11931;SDS011;6025;51.368;6.788;2022-12-11T09:05:15;17.93;;;10.93;;
11931;SDS011;6025;51.368;6.788;2022-12-11T09:10:08;18.93;;;11.87;;
11931;SDS011;6025;51.368;6.788;2022-12-11T09:15:00;19.77;;;11.60;;
11931;SDS011;6025;51.368;6.788;2022-12-11T09:19:54;18.93;;;10.67;;
11931;SDS011;6025;51.368;6.788;2022-12-11T09:24:46;17.97;;;10.43;;
11931;SDS011;6025;51.368;6.788;2022-12-11T09:29:43;18.03;;;11.17;;
11931;SDS011;6025;51.368;6.788;2022-12-11T09:34:39;16.57;;;10.20;;
11931;SDS011;6025;51.368;6.788;2022-12-11T09:39:35;15.67;;;10.03;;
11931;SDS011;6025;51.368;6.788;2022-12-11T09:44:30;18.80;;;10.90;;
11931;SDS011;6025;51.368;6.788;2022-12-11T09:49:33;15.67;;;9.77;;
11931;SDS011;6025;51.368;6.788;2022-12-11T09:54:26;16.90;;;10.40;;
11931;SDS011;6025;51.368;6.788;2022-12-11T09:59:22;16.33;;;10.07;;
11931;SDS011;6025;51.368;6.788;2022-12-11T10:04:27;16.27;;;10.27;;
11931;SDS011;6025;51.368;6.788;2022-12-11T10:09:34;14.33;;;9.10;;
11931;SDS011;6025;51.368;6.788;2022-12-11T10:14:43;13.97;;;9.23;;
11931;SDS011;6025;51.368;6.788;2022-12-11T10:19:46;14.63;;;9.07;;
11931;SDS011;6025;51.368;6.788;2022-12-11T10:24:41;12.70;;;8.87;;
11931;SDS011;6025;51.368;6.788;2022-12-11T10:29:35;12.53;;;8.57;;
11931;SDS011;6025;51.368;6.788;2022-12-11T10:34:58;14.40;;;8.87;;
11931;SDS011;6025;51.368;6.788;2022-12-11T10:45:16;14.57;;;9.30;;
11931;SDS011;6025;51.368;6.788;2022-12-11T10:50:22;13.20;;;8.73;;
11931;SDS011;6025;51.368;6.788;2022-12-11T10:55:19;14.40;;;8.70;;
11931;SDS011;6025;51.368;6.788;2022-12-11T11:00:28;12.87;;;8.43;;
11931;SDS011;6025;51.368;6.788;2022-12-11T11:05:34;13.33;;;9.00;;
11931;SDS011;6025;51.368;6.788;2022-12-11T11:10:58;11.80;;;8.60;;
11931;SDS011;6025;51.368;6.788;2022-12-11T11:15:57;11.60;;;8.07;;
11931;SDS011;6025;51.368;6.788;2022-12-11T11:20:54;13.23;;;8.23;;
11931;SDS011;6025;51.368;6.788;2022-12-11T11:25:50;13.13;;;7.53;;
11931;SDS011;6025;51.368;6.788;2022-12-11T11:30:53;11.47;;;7.47;;
11931;SDS011;6025;51.368;6.788;2022-12-11T11:35:51;12.30;;;8.17;;
11931;SDS011;6025;51.368;6.788;2022-12-11T11:40:49;12.60;;;8.20;;
11931;SDS011;6025;51.368;6.788;2022-12-11T11:45:49;12.10;;;8.27;;
11931;SDS011;6025;51.368;6.788;2022-12-11T11:51:02;11.87;;;8.30;;
11931;SDS011;6025;51.368;6.788;2022-12-11T11:56:02;11.80;;;7.60;;
11931;SDS011;6025;51.368;6.788;2022-12-11T12:00:57;10.87;;;7.40;;
11931;SDS011;6025;51.368;6.788;2022-12-11T12:05:51;15.57;;;8.00;;
11931;SDS011;6025;51.368;6.788;2022-12-11T12:10:50;11.33;;;7.57;;
11931;SDS011;6025;51.368;6.788;2022-12-11T12:15:47;12.13;;;8.00;;
11931;SDS011;6025;51.368;6.788;2022-12-11T12:20:45;11.50;;;7.93;;
11931;SDS011;6025;51.368;6.788;2022-12-11T12:25:41;11.67;;;8.10;;
11931;SDS011;6025;51.368;6.788;2022-12-11T12:30:39;12.23;;;8.43;;
11931;SDS011;6025;51.368;6.788;2022-12-11T12:35:39;13.20;;;9.27;;
11931;SDS011;6025;51.368;6.788;2022-12-11T12:40:47;14.17;;;9.07;;
11931;SDS011;6025;51.368;6.788;2022-12-11T12:51:32;12.90;;;8.70;;
11931;SDS011;6025;51.368;6.788;2022-12-11T12:56:28;13.30;;;9.20;;
11931;SDS011;6025;51.368;6.788;2022-12-11T13:01:24;14.37;;;9.30;;
11931;SDS011;6025;51.368;6.788;2022-12-11T13:06:26;13.27;;;8.70;;
11931;SDS011;6025;51.368;6.788;2022-12-11T13:11:29;12.57;;;9.77;;
11931;SDS011;6025;51.368;6.788;2022-12-11T13:16:33;16.33;;;9.63;;
11931;SDS011;6025;51.368;6.788;2022-12-11T13:21:30;13.47;;;10.03;;
11931;SDS011;6025;51.368;6.788;2022-12-11T13:26:28;13.07;;;10.23;;
11931;SDS011;6025;51.368;6.788;2022-12-11T13:31:29;15.00;;;10.63;;
11931;SDS011;6025;51.368;6.788;2022-12-11T13:36:28;14.10;;;10.07;;
11931;SDS011;6025;51.368;6.788;2022-12-11T13:41:22;14.20;;;10.13;;
11931;SDS011;6025;51.368;6.788;2022-12-11T13:46:14;15.27;;;10.20;;
11931;SDS011;6025;51.368;6.788;2022-12-11T13:51:15;13.87;;;10.57;;
11931;SDS011;6025;51.368;6.788;2022-12-11T13:56:55;13.93;;;10.47;;
11931;SDS011;6025;51.368;6.788;2022-12-11T14:01:41;15.23;;;11.03;;
11931;SDS011;6025;51.368;6.788;2022-12-11T14:06:48;14.47;;;10.17;;
11931;SDS011;6025;51.368;6.788;2022-12-11T14:11:42;14.40;;;10.80;;
11931;SDS011;6025;51.368;6.788;2022-12-11T14:16:37;15.30;;;10.63;;
11931;SDS011;6025;51.368;6.788;2022-12-11T14:21:38;16.27;;;11.30;;
11931;SDS011;6025;51.368;6.788;2022-12-11T14:26:58;16.73;;;11.50;;
11931;SDS011;6025;51.368;6.788;2022-12-11T14:32:00;16.73;;;11.87;;
11931;SDS011;6025;51.368;6.788;2022-12-11T14:36:57;16.77;;;11.27;;
11931;SDS011;6025;51.368;6.788;2022-12-11T14:42:15;16.27;;;11.23;;
11931;SDS011;6025;51.368;6.788;2022-12-11T14:47:15;14.40;;;10.60;;
11931;SDS011;6025;51.368;6.788;2022-12-11T14:52:17;16.27;;;11.40;;
11931;SDS011;6025;51.368;6.788;2022-12-11T14:57:17;16.40;;;11.10;;
11931;SDS011;6025;51.368;6.788;2022-12-11T15:02:24;17.90;;;11.80;;
11931;SDS011;6025;51.368;6.788;2022-12-11T15:07:30;19.20;;;11.63;;
11931;SDS011;6025;51.368;6.788;2022-12-11T15:12:33;19.33;;;11.80;;
11931;SDS011;6025;51.368;6.788;2022-12-11T15:17:41;16.83;;;11.80;;
11931;SDS011;6025;51.368;6.788;2022-12-11T15:22:49;19.90;;;12.10;;
11931;SDS011;6025;51.368;6.788;2022-12-11T15:33:45;20.60;;;12.13;;
11931;SDS011;6025;51.368;6.788;2022-12-11T15:38:48;18.80;;;12.57;;
11931;SDS011;6025;51.368;6.788;2022-12-11T15:43:54;19.33;;;12.33;;
11931;SDS011;6025;51.368;6.788;2022-12-11T15:54:32;21.50;;;13.67;;
11931;SDS011;6025;51.368;6.788;2022-12-11T15:59:39;17.57;;;11.20;;
11931;SDS011;6025;51.368;6.788;2022-12-11T16:04:40;15.70;;;10.37;;
11931;SDS011;6025;51.368;6.788;2022-12-11T16:09:41;14.93;;;9.80;;
11931;SDS011;6025;51.368;6.788;2022-12-11T16:14:33;15.50;;;10.00;;
11931;SDS011;6025;51.368;6.788;2022-12-11T16:19:28;15.03;;;9.93;;
11931;SDS011;6025;51.368;6.788;2022-12-11T16:24:22;15.80;;;10.60;;
11931;SDS011;6025;51.368;6.788;2022-12-11T16:29:14;14.73;;;10.37;;
11931;SDS011;6025;51.368;6.788;2022-12-11T16:34:06;12.80;;;9.57;;
11931;SDS011;6025;51.368;6.788;2022-12-11T16:38:59;15.10;;;9.63;;
11931;SDS011;6025;51.368;6.788;2022-12-11T16:43:51;16.37;;;9.50;;
11931;SDS011;6025;51.368;6.788;2022-12-11T16:48:44;14.33;;;9.63;;
11931;SDS011;6025;51.368;6.788;2022-12-11T16:53:35;13.10;;;8.87;;
11931;SDS011;6025;51.368;6.788;2022-12-11T16:58:30;13.07;;;9.90;;
11931;SDS011;6025;51.368;6.788;2022-12-11T17:03:22;13.67;;;9.30;;
11931;SDS011;6025;51.368;6.788;2022-12-11T17:08:14;16.27;;;10.70;;
11931;SDS011;6025;51.368;6.788;2022-12-11T17:13:11;14.13;;;9.60;;
11931;SDS011;6025;51.368;6.788;2022-12-11T17:18:09;14.47;;;9.63;;
11931;SDS011;6025;51.368;6.788;2022-12-11T17:23:01;15.83;;;11.13;;
11931;SDS011;6025;51.368;6.788;2022-12-11T17:27:56;19.90;;;12.93;;
11931;SDS011;6025;51.368;6.788;2022-12-11T17:32:50;20.13;;;12.67;;
11931;SDS011;6025;51.368;6.788;2022-12-11T17:37:43;15.00;;;10.90;;
11931;SDS011;6025;51.368;6.788;2022-12-11T17:42:35;15.43;;;10.17;;
11931;SDS011;6025;51.368;6.788;2022-12-11T17:47:27;14.03;;;10.27;;
11931;SDS011;6025;51.368;6.788;2022-12-11T17:52:19;13.07;;;9.67;;
11931;SDS011;6025;51.368;6.788;2022-12-11T17:57:12;14.37;;;9.80;;
11931;SDS011;6025;51.368;6.788;2022-12-11T18:02:04;25.10;;;14.83;;
11931;SDS011;6025;51.368;6.788;2022-12-11T18:06:56;14.53;;;9.63;;
11931;SDS011;6025;51.368;6.788;2022-12-11T18:11:48;15.43;;;10.40;;
11931;SDS011;6025;51.368;6.788;2022-12-11T18:16:55;14.70;;;10.57;;
11931;SDS011;6025;51.368;6.788;2022-12-11T18:21:47;13.07;;;9.57;;
11931;SDS011;6025;51.368;6.788;2022-12-11T18:26:41;14.13;;;10.03;;
11931;SDS011;6025;51.368;6.788;2022-12-11T18:31:36;14.20;;;10.37;;
11931;SDS011;6025;51.368;6.788;2022-12-11T18:36:32;12.97;;;8.60;;
11931;SDS011;6025;51.368;6.788;2022-12-11T18:41:25;11.90;;;8.93;;
11931;SDS011;6025;51.368;6.788;2022-12-11T18:46:17;14.53;;;9.70;;
11931;SDS011;6025;51.368;6.788;2022-12-11T18:51:11;13.73;;;9.50;;
11931;SDS011;6025;51.368;6.788;2022-12-11T18:56:06;16.43;;;11.03;;
11931;SDS011;6025;51.368;6.788;2022-12-11T19:01:06;13.47;;;9.13;;
11931;SDS011;6025;51.368;6.788;2022-12-11T19:06:04;13.80;;;9.40;;
11931;SDS011;6025;51.368;6.788;2022-12-11T19:10:56;13.67;;;9.83;;
11931;SDS011;6025;51.368;6.788;2022-12-11T19:15:49;13.50;;;9.53;;
11931;SDS011;6025;51.368;6.788;2022-12-11T19:20:41;13.83;;;9.83;;
11931;SDS011;6025;51.368;6.788;2022-12-11T19:25:40;13.90;;;9.43;;
11931;SDS011;6025;51.368;6.788;2022-12-11T19:30:32;13.73;;;9.70;;
11931;SDS011;6025;51.368;6.788;2022-12-11T19:35:25;17.73;;;10.97;;
11931;SDS011;6025;51.368;6.788;2022-12-11T19:40:17;14.87;;;10.53;;
11931;SDS011;6025;51.368;6.788;2022-12-11T19:45:10;15.47;;;9.90;;
11931;SDS011;6025;51.368;6.788;2022-12-11T19:50:02;14.07;;;10.30;;
11931;SDS011;6025;51.368;6.788;2022-12-11T19:55:00;14.43;;;9.80;;
11931;SDS011;6025;51.368;6.788;2022-12-11T19:59:52;19.27;;;12.30;;
11931;SDS011;6025;51.368;6.788;2022-12-11T20:04:45;17.27;;;11.67;;
11931;SDS011;6025;51.368;6.788;2022-12-11T20:09:36;18.53;;;11.73;;
11931;SDS011;6025;51.368;6.788;2022-12-11T20:14:30;16.03;;;10.37;;
11931;SDS011;6025;51.368;6.788;2022-12-11T20:19:22;15.33;;;10.10;;
11931;SDS011;6025;51.368;6.788;2022-12-11T20:24:14;12.53;;;9.13;;
11931;SDS011;6025;51.368;6.788;2022-12-11T20:29:06;14.47;;;9.83;;
11931;SDS011;6025;51.368;6.788;2022-12-11T20:34:00;15.43;;;10.97;;
11931;SDS011;6025;51.368;6.788;2022-12-11T20:38:52;28.73;;;15.23;;
11931;SDS011;6025;51.368;6.788;2022-12-11T20:43:44;15.37;;;10.17;;
11931;SDS011;6025;51.368;6.788;2022-12-11T20:48:38;13.07;;;10.33;;
11931;SDS011;6025;51.368;6.788;2022-12-11T20:53:32;16.40;;;11.00;;
11931;SDS011;6025;51.368;6.788;2022-12-11T20:58:24;15.70;;;10.47;;
11931;SDS011;6025;51.368;6.788;2022-12-11T21:03:16;16.37;;;10.93;;
11931;SDS011;6025;51.368;6.788;2022-12-11T21:08:08;15.77;;;10.70;;
11931;SDS011;6025;51.368;6.788;2022-12-11T21:13:01;15.60;;;11.20;;
11931;SDS011;6025;51.368;6.788;2022-12-11T21:17:55;16.70;;;11.20;;
11931;SDS011;6025;51.368;6.788;2022-12-11T21:22:46;17.03;;;11.63;;
11931;SDS011;6025;51.368;6.788;2022-12-11T21:27:38;17.80;;;11.60;;
11931;SDS011;6025;51.368;6.788;2022-12-11T21:32:32;18.90;;;11.90;;
11931;SDS011;6025;51.368;6.788;2022-12-11T21:37:24;17.33;;;10.57;;
11931;SDS011;6025;51.368;6.788;2022-12-11T21:42:16;17.77;;;11.73;;
11931;SDS011;6025;51.368;6.788;2022-12-11T21:47:08;21.07;;;12.70;;
11931;SDS011;6025;51.368;6.788;2022-12-11T21:52:01;17.73;;;12.60;;
11931;SDS011;6025;51.368;6.788;2022-12-11T21:56:53;18.87;;;12.53;;
11931;SDS011;6025;51.368;6.788;2022-12-11T22:01:44;16.13;;;11.67;;
11931;SDS011;6025;51.368;6.788;2022-12-11T22:06:36;16.70;;;11.50;;
11931;SDS011;6025;51.368;6.788;2022-12-11T22:11:31;20.33;;;12.87;;
11931;SDS011;6025;51.368;6.788;2022-12-11T22:16:24;17.27;;;12.17;;
11931;SDS011;6025;51.368;6.788;2022-12-11T22:21:15;17.33;;;11.83;;
11931;SDS011;6025;51.368;6.788;2022-12-11T22:26:08;16.00;;;11.30;;
11931;SDS011;6025;51.368;6.788;2022-12-11T22:31:05;17.07;;;11.33;;
11931;SDS011;6025;51.368;6.788;2022-12-11T22:36:00;18.67;;;11.77;;
11931;SDS011;6025;51.368;6.788;2022-12-11T22:40:51;16.07;;;10.87;;
11931;SDS011;6025;51.368;6.788;2022-12-11T22:45:44;17.50;;;11.77;;
11931;SDS011;6025;51.368;6.788;2022-12-11T22:50:39;16.37;;;11.33;;
11931;SDS011;6025;51.368;6.788;2022-12-11T22:55:31;16.80;;;11.00;;
11931;SDS011;6025;51.368;6.788;2022-12-11T23:00:23;17.70;;;11.07;;
11931;SDS011;6025;51.368;6.788;2022-12-11T23:05:16;15.57;;;10.50;;
11931;SDS011;6025;51.368;6.788;2022-12-11T23:10:09;16.93;;;10.10;;
11931;SDS011;6025;51.368;6.788;2022-12-11T23:15:01;15.93;;;10.70;;
11931;SDS011;6025;51.368;6.788;2022-12-11T23:19:53;14.63;;;10.70;;
11931;SDS011;6025;51.368;6.788;2022-12-11T23:24:45;15.70;;;10.57;;
11931;SDS011;6025;51.368;6.788;2022-12-11T23:29:39;16.00;;;10.67;;
11931;SDS011;6025;51.368;6.788;2022-12-11T23:34:32;15.53;;;10.40;;
11931;SDS011;6025;51.368;6.788;2022-12-11T23:39:24;15.73;;;11.07;;
11931;SDS011;6025;51.368;6.788;2022-12-11T23:44:16;19.33;;;12.30;;
11931;SDS011;6025;51.368;6.788;2022-12-11T23:49:09;17.00;;;11.53;;
11931;SDS011;6025;51.368;6.788;2022-12-11T23:54:01;19.90;;;11.77;;
11931;SDS011;6025;51.368;6.788;2022-12-11T23:58:53;20.20;;;12.60;;
